Time;durP1;ratioP1;P1;durP2;ratioP2;P2;SDS_P1;SDS_P2;PMS_P1;PMS_P2;Temp;Humidity;BMP_temperature;BMP_pressure;BME280_temperature;BME280_humidity;BME280_pressure;Samples;Min_cycle;Max_cycle;Signal;HPM_P1;HPM_P2
2023/12/25 00:07:10;;;;;;;11.73;3.17;;;;;;;;;;5102683;24;20697;-62
2023/12/25 00:14:57;;;;;;;10.10;3.58;;;;;;;;;;5053464;24;20080;-60
2023/12/25 00:17:23;;;;;;;7.85;2.85;;;;;;;;;;4742692;24;20050;-59
2023/12/25 00:25:10;;;;;;;5.60;2.40;;;;;;;;;;5046696;24;20062;-59
2023/12/25 00:27:45;;;;;;;8.23;3.38;;;;;;;;;;4815359;24;20081;-77
2023/12/25 00:30:11;;;;;;;6.90;2.75;;;;;;;;;;4979869;24;20069;-60
2023/12/25 00:32:38;;;;;;;6.20;2.47;;;;;;;;;;4861508;24;20046;-63
2023/12/25 00:35:05;;;;;;;7.20;2.35;;;;;;;;;;4796975;29;20043;-61
2023/12/25 00:37:31;;;;;;;7.97;2.33;;;;;;;;;;4808504;24;20325;-59
2023/12/25 00:39:57;;;;;;;7.28;2.67;;;;;;;;;;4804274;29;20534;-62
2023/12/25 00:42:24;;;;;;;5.78;2.42;;;;;;;;;;4888704;24;20768;-74
2023/12/25 00:47:28;;;;;;;8.30;2.65;;;;;;;;;;5163690;24;20066;-60
2023/12/25 01:03:12;;;;;;;9.63;4.13;;;;;;;;;;5533411;24;20061;-60
2023/12/25 01:10:51;;;;;;;7.65;3.65;;;;;;;;;;4971656;24;20589;-68
2023/12/25 01:13:23;;;;;;;6.65;3.33;;;;;;;;;;4831734;24;20036;-74
2023/12/25 01:36:43;;;;;;;9.75;2.10;;;;;;;;;;5363444;24;20078;-62
2023/12/25 01:42:02;;;;;;;10.75;1.83;;;;;;;;;;3472384;24;20062;-75
2023/12/25 02:37:11;;;;;;;4.78;1.33;;;;;;;;;;5768147;24;20667;-62
2023/12/25 02:39:38;;;;;;;8.45;1.33;;;;;;;;;;4937386;24;20062;-60
2023/12/25 02:42:04;;;;;;;5.75;1.42;;;;;;;;;;4860022;24;20054;-61
2023/12/25 02:44:30;;;;;;;15.38;2.47;;;;;;;;;;4814319;29;20074;-61
2023/12/25 02:55:02;;;;;;;14.35;1.80;;;;;;;;;;5105925;24;20054;-64
2023/12/25 03:42:49;;;;;;;13.77;1.77;;;;;;;;;;5649756;24;20134;-61
2023/12/25 03:56:06;;;;;;;11.90;2.20;;;;;;;;;;5590742;24;19943;-63
2023/12/25 03:58:33;;;;;;;8.88;1.70;;;;;;;;;;5020490;24;20948;-64
2023/12/25 04:01:00;;;;;;;11.43;1.92;;;;;;;;;;4941518;24;20077;-62
2023/12/25 04:33:41;;;;;;;13.30;1.85;;;;;;;;;;5601933;24;20061;-63
2023/12/25 05:06:14;;;;;;;14.07;1.65;;;;;;;;;;5573071;24;20070;-62
2023/12/25 10:23:08;;;;;;;2.58;0.82;;;;;;;;;;5588494;24;20302;-61
2023/12/25 11:59:22;;;;;;;4.97;0.80;;;;;;;;;;5491428;24;20810;-60
2023/12/25 12:07:08;;;;;;;5.20;0.95;;;;;;;;;;5331949;24;20382;-64
2023/12/25 12:17:40;;;;;;;5.32;0.65;;;;;;;;;;5802111;24;20250;-63
2023/12/25 12:28:15;;;;;;;5.30;1.00;;;;;;;;;;5489544;24;20285;-60
2023/12/25 12:30:45;;;;;;;2.47;0.75;;;;;;;;;;4813616;29;20712;-61
2023/12/25 12:33:12;;;;;;;3.53;0.80;;;;;;;;;;4811129;29;20073;-60
2023/12/25 12:38:13;;;;;;;3.30;0.80;;;;;;;;;;5023631;24;20042;-58
2023/12/25 12:40:40;;;;;;;6.60;1.15;;;;;;;;;;4834164;29;20861;-60
2023/12/25 12:43:06;;;;;;;5.50;1.13;;;;;;;;;;4834615;29;20156;-59
2023/12/25 12:45:33;;;;;;;3.22;0.90;;;;;;;;;;4829090;29;20054;-59
2023/12/25 12:47:59;;;;;;;1.13;0.60;;;;;;;;;;4834972;29;20417;-58
2023/12/25 12:50:26;;;;;;;2.20;0.70;;;;;;;;;;4812900;29;20078;-60
2023/12/25 15:29:30;;;;;;;5.35;1.55;;;;;;;;;;5024975;24;20069;-63
2023/12/25 15:31:57;;;;;;;4.57;1.38;;;;;;;;;;4866364;24;20053;-63
2023/12/25 15:34:24;;;;;;;7.93;2.08;;;;;;;;;;4824750;29;20062;-62
2023/12/25 15:45:07;;;;;;;6.68;2.28;;;;;;;;;;5326570;24;20054;-61
2023/12/25 16:17:15;;;;;;;9.45;4.32;;;;;;;;;;4801002;24;20082;-55
2023/12/25 16:19:41;;;;;;;8.63;3.90;;;;;;;;;;5048898;24;20050;-59
2023/12/25 16:29:15;;;;;;;10.48;4.53;;;;;;;;;;4800458;29;20430;-73
2023/12/25 16:38:49;;;;;;;10.27;4.70;;;;;;;;;;4800655;29;20041;-74
2023/12/25 16:41:16;;;;;;;16.33;5.50;;;;;;;;;;4806258;29;20105;-73
2023/12/25 16:43:42;;;;;;;11.02;5.13;;;;;;;;;;4681960;29;21993;-74
2023/12/25 16:46:08;;;;;;;15.73;5.75;;;;;;;;;;4808031;29;20062;-74
2023/12/25 17:01:49;;;;;;;12.50;4.93;;;;;;;;;;2821893;24;20278;-72
2023/12/25 17:07:41;;;;;;;12.05;5.00;;;;;;;;;;4635521;29;20092;-74
2023/12/25 17:10:08;;;;;;;8.48;4.18;;;;;;;;;;4784421;29;20069;-73
2023/12/25 17:13:05;;;;;;;8.50;4.35;;;;;;;;;;4603360;29;20104;-74
2023/12/25 17:15:32;;;;;;;13.83;4.60;;;;;;;;;;4778046;29;20052;-75
2023/12/25 17:17:59;;;;;;;14.18;5.65;;;;;;;;;;4615377;29;20221;-75
2023/12/25 17:20:27;;;;;;;11.25;5.43;;;;;;;;;;4730337;29;20059;-74
2023/12/25 17:23:16;;;;;;;11.13;5.38;;;;;;;;;;4791991;29;20118;-74
2023/12/25 17:25:44;;;;;;;9.32;5.07;;;;;;;;;;4604966;29;20150;-74
2023/12/25 17:28:11;;;;;;;13.98;4.97;;;;;;;;;;4784357;29;20065;-74
2023/12/25 17:30:37;;;;;;;8.27;4.55;;;;;;;;;;4630706;29;20051;-74
2023/12/25 17:33:05;;;;;;;10.38;4.53;;;;;;;;;;4777348;29;20059;-74
2023/12/25 17:38:07;;;;;;;3.95;3.40;;;;;;;;;;5420189;24;20677;-77
2023/12/25 17:56:54;;;;;;;7.15;3.33;;;;;;;;;;5857891;24;20230;-77
2023/12/25 17:59:21;;;;;;;7.35;2.78;;;;;;;;;;4819116;29;20896;-76
2023/12/25 18:01:48;;;;;;;6.15;3.10;;;;;;;;;;4828199;29;20130;-76
2023/12/25 18:04:14;;;;;;;7.63;2.97;;;;;;;;;;4833252;29;20050;-77
2023/12/25 18:06:40;;;;;;;5.55;2.50;;;;;;;;;;4809924;29;20050;-76
2023/12/25 18:09:07;;;;;;;6.10;2.22;;;;;;;;;;4810580;29;21338;-77
2023/12/25 18:11:35;;;;;;;6.18;2.42;;;;;;;;;;4827314;29;20145;-77
2023/12/25 18:14:04;;;;;;;3.63;2.13;;;;;;;;;;4824456;29;20146;-78
2023/12/25 18:16:30;;;;;;;3.72;2.03;;;;;;;;;;4833387;29;20114;-77
2023/12/25 18:18:59;;;;;;;6.75;2.08;;;;;;;;;;4811911;29;20711;-78
2023/12/25 18:21:26;;;;;;;7.60;2.30;;;;;;;;;;4833253;29;20064;-79
2023/12/25 18:23:52;;;;;;;7.38;2.17;;;;;;;;;;4827711;29;20051;-78
2023/12/25 18:26:23;;;;;;;4.28;1.75;;;;;;;;;;4823188;29;20057;-79
2023/12/25 18:28:50;;;;;;;5.82;2.08;;;;;;;;;;4832414;29;20582;-78
2023/12/25 18:31:17;;;;;;;4.68;1.80;;;;;;;;;;4823511;29;20464;-80
2023/12/25 18:33:44;;;;;;;4.60;1.70;;;;;;;;;;4834423;29;20065;-80
2023/12/25 18:36:11;;;;;;;6.47;1.67;;;;;;;;;;4831655;29;20046;-79
2023/12/25 18:38:37;;;;;;;4.10;1.95;;;;;;;;;;4830442;29;20430;-79
2023/12/25 18:41:04;;;;;;;6.93;1.90;;;;;;;;;;4829673;29;20062;-79
2023/12/25 18:43:30;;;;;;;6.97;2.03;;;;;;;;;;4826583;29;20081;-79
2023/12/25 18:45:59;;;;;;;5.80;2.45;;;;;;;;;;4831685;29;20069;-78
2023/12/25 18:48:26;;;;;;;7.15;2.72;;;;;;;;;;4823896;29;20069;-76
2023/12/25 18:50:53;;;;;;;3.53;2.05;;;;;;;;;;4831913;29;20054;-76
2023/12/25 18:53:20;;;;;;;5.28;2.33;;;;;;;;;;4827761;29;20057;-75
2023/12/25 18:55:46;;;;;;;6.18;2.40;;;;;;;;;;4823127;29;20053;-74
2023/12/25 18:58:12;;;;;;;4.15;1.92;;;;;;;;;;4836069;29;20468;-73
2023/12/25 19:00:39;;;;;;;3.92;2.00;;;;;;;;;;4813735;29;20447;-73
2023/12/25 19:03:05;;;;;;;5.07;1.90;;;;;;;;;;4834874;29;20490;-74
2023/12/25 19:05:32;;;;;;;6.45;3.03;;;;;;;;;;4825641;29;20049;-73
2023/12/25 19:07:59;;;;;;;6.40;3.05;;;;;;;;;;4814480;29;20058;-75
2023/12/25 19:10:25;;;;;;;9.32;2.83;;;;;;;;;;4837491;29;20078;-76
2023/12/25 19:12:52;;;;;;;4.57;2.00;;;;;;;;;;4828781;29;20129;-74
2023/12/25 19:15:18;;;;;;;5.55;2.28;;;;;;;;;;4830330;29;20054;-75
2023/12/25 19:17:45;;;;;;;4.53;2.00;;;;;;;;;;4829913;29;20659;-74
2023/12/25 19:20:17;;;;;;;6.70;3.25;;;;;;;;;;4831684;29;20060;-75
2023/12/25 19:22:43;;;;;;;4.05;2.17;;;;;;;;;;4830220;29;20441;-74
2023/12/25 19:25:10;;;;;;;4.60;2.10;;;;;;;;;;4979772;24;20587;-53
2023/12/25 19:27:36;;;;;;;5.43;2.42;;;;;;;;;;4762385;24;20074;-74
2023/12/25 19:30:03;;;;;;;6.45;2.28;;;;;;;;;;4810199;29;20050;-75
2023/12/25 19:32:29;;;;;;;3.17;1.92;;;;;;;;;;4689029;29;20050;-73
2023/12/25 19:34:56;;;;;;;5.25;2.22;;;;;;;;;;4951174;24;20417;-77
2023/12/25 19:37:22;;;;;;;4.35;2.17;;;;;;;;;;4819180;29;20111;-77
2023/12/25 19:39:49;;;;;;;4.00;2.10;;;;;;;;;;4825873;29;20103;-77
2023/12/25 19:42:15;;;;;;;2.35;1.67;;;;;;;;;;4809760;29;20576;-79
2023/12/25 19:44:44;;;;;;;6.80;2.20;;;;;;;;;;4815225;29;20058;-77
2023/12/25 19:47:10;;;;;;;4.13;1.98;;;;;;;;;;4815195;29;20122;-81
2023/12/25 19:49:36;;;;;;;6.43;2.50;;;;;;;;;;4803755;29;20108;-80
2023/12/25 19:52:03;;;;;;;4.00;1.73;;;;;;;;;;4823869;29;20050;-77
2023/12/25 19:54:29;;;;;;;2.35;1.70;;;;;;;;;;4812435;29;20062;-77
2023/12/25 19:56:56;;;;;;;3.90;1.90;;;;;;;;;;4815496;29;20057;-77
2023/12/25 19:59:22;;;;;;;2.28;1.63;;;;;;;;;;4795813;29;20415;-76
2023/12/25 20:01:49;;;;;;;2.78;1.70;;;;;;;;;;4814814;29;20636;-76
2023/12/25 20:04:15;;;;;;;2.53;1.40;;;;;;;;;;4821146;29;20461;-77
2023/12/25 20:06:42;;;;;;;2.10;1.52;;;;;;;;;;4822845;29;20050;-76
2023/12/25 20:09:09;;;;;;;2.28;1.58;;;;;;;;;;4817067;29;20089;-78
2023/12/25 20:11:35;;;;;;;1.92;1.58;;;;;;;;;;4807202;29;20146;-78
2023/12/25 20:14:02;;;;;;;1.98;1.60;;;;;;;;;;4810946;29;20058;-76
2023/12/25 20:16:28;;;;;;;3.35;1.90;;;;;;;;;;4816833;29;20140;-77
2023/12/25 20:18:55;;;;;;;1.98;1.70;;;;;;;;;;4815713;29;20070;-77
2023/12/25 20:21:24;;;;;;;2.20;1.70;;;;;;;;;;4809281;29;20483;-76
2023/12/25 20:23:51;;;;;;;2.20;2.00;;;;;;;;;;4810062;29;20145;-77
2023/12/25 20:26:17;;;;;;;2.65;2.15;;;;;;;;;;4822480;29;20061;-75
2023/12/25 20:28:44;;;;;;;3.05;2.53;;;;;;;;;;4809434;29;20077;-77
2023/12/25 20:31:10;;;;;;;3.40;2.72;;;;;;;;;;4798534;29;20054;-76
2023/12/25 20:33:40;;;;;;;4.78;2.60;;;;;;;;;;4811845;29;20828;-73
2023/12/25 20:36:07;;;;;;;4.47;2.65;;;;;;;;;;4816575;29;20057;-74
2023/12/25 20:38:33;;;;;;;3.60;2.25;;;;;;;;;;4817488;29;20496;-74
2023/12/25 20:41:00;;;;;;;2.95;2.50;;;;;;;;;;4807263;29;20050;-74
2023/12/25 20:43:26;;;;;;;3.40;2.47;;;;;;;;;;4812538;29;20054;-72
2023/12/25 20:45:53;;;;;;;3.80;2.75;;;;;;;;;;4813075;29;20494;-78
2023/12/25 20:48:20;;;;;;;3.50;2.97;;;;;;;;;;4817029;29;20908;-79
2023/12/25 20:50:46;;;;;;;3.55;3.10;;;;;;;;;;4817518;29;20054;-78
2023/12/25 20:53:13;;;;;;;3.75;2.92;;;;;;;;;;4816484;29;20058;-76
2023/12/25 20:55:40;;;;;;;4.22;3.33;;;;;;;;;;4803504;29;20141;-76
2023/12/25 20:58:07;;;;;;;4.50;3.33;;;;;;;;;;4806426;29;20540;-76
2023/12/25 21:00:34;;;;;;;4.03;3.63;;;;;;;;;;4819677;29;20062;-77
2023/12/25 21:03:00;;;;;;;4.00;3.60;;;;;;;;;;4806526;29;20758;-76
2023/12/25 21:05:27;;;;;;;3.42;3.10;;;;;;;;;;4810135;29;20055;-79
2023/12/25 21:07:54;;;;;;;3.85;3.05;;;;;;;;;;4819577;29;20814;-80
2023/12/25 21:10:21;;;;;;;3.95;2.75;;;;;;;;;;4805852;29;20061;-76
2023/12/25 21:12:48;;;;;;;3.35;3.03;;;;;;;;;;4823680;29;20079;-77
2023/12/25 21:15:14;;;;;;;4.63;4.13;;;;;;;;;;4810418;29;20055;-76
2023/12/25 21:17:41;;;;;;;4.13;3.42;;;;;;;;;;4813876;29;20057;-75
2023/12/25 21:20:07;;;;;;;4.50;4.10;;;;;;;;;;4819697;29;20066;-76
2023/12/25 21:22:35;;;;;;;5.35;4.20;;;;;;;;;;4807529;29;20118;-76
2023/12/25 21:25:02;;;;;;;6.10;4.40;;;;;;;;;;4815167;29;20058;-77
2023/12/25 21:27:28;;;;;;;4.57;4.18;;;;;;;;;;4812595;29;20054;-76
2023/12/25 21:29:55;;;;;;;5.00;4.22;;;;;;;;;;4798910;29;20058;-77
2023/12/25 21:32:21;;;;;;;4.68;4.18;;;;;;;;;;4819334;29;20055;-77
2023/12/25 21:34:47;;;;;;;4.88;4.38;;;;;;;;;;4812786;29;20937;-76
2023/12/25 21:37:14;;;;;;;4.63;4.00;;;;;;;;;;4819371;29;20141;-77
2023/12/25 21:39:41;;;;;;;4.93;4.38;;;;;;;;;;4811528;29;20078;-78
2023/12/25 21:42:07;;;;;;;4.68;4.22;;;;;;;;;;4820430;29;21104;-79
2023/12/25 21:44:35;;;;;;;5.00;4.47;;;;;;;;;;4806643;29;20058;-78
2023/12/25 21:47:03;;;;;;;4.88;4.38;;;;;;;;;;4824343;29;20050;-78
2023/12/25 21:49:29;;;;;;;5.10;4.40;;;;;;;;;;4814740;29;20414;-77
2023/12/25 21:51:55;;;;;;;5.68;4.03;;;;;;;;;;4791888;29;20145;-77
2023/12/25 21:54:22;;;;;;;5.03;4.32;;;;;;;;;;4789124;29;20051;-76
2023/12/25 21:56:48;;;;;;;4.63;4.15;;;;;;;;;;4809713;29;20404;-77
2023/12/25 21:59:15;;;;;;;5.05;4.55;;;;;;;;;;4824565;29;20594;-76
2023/12/25 22:01:41;;;;;;;5.60;4.50;;;;;;;;;;4800746;29;20050;-75
2023/12/25 22:04:08;;;;;;;6.60;4.22;;;;;;;;;;4809972;29;20114;-76
2023/12/25 22:06:36;;;;;;;4.97;4.30;;;;;;;;;;4810107;29;20145;-76
2023/12/25 22:09:03;;;;;;;5.97;3.83;;;;;;;;;;4806862;29;20119;-76
2023/12/25 22:11:29;;;;;;;6.18;3.90;;;;;;;;;;4817303;29;20111;-75
2023/12/25 22:13:56;;;;;;;5.13;4.00;;;;;;;;;;4798809;29;20066;-79
2023/12/25 22:16:24;;;;;;;4.72;3.90;;;;;;;;;;4799274;29;20062;-79
2023/12/25 22:18:51;;;;;;;4.43;4.03;;;;;;;;;;4810621;29;20078;-78
2023/12/25 22:21:18;;;;;;;4.57;3.50;;;;;;;;;;4793574;29;20062;-76
2023/12/25 22:23:44;;;;;;;4.15;3.75;;;;;;;;;;4809387;29;20060;-78
2023/12/25 22:26:13;;;;;;;4.00;3.55;;;;;;;;;;4796104;29;20319;-74
2023/12/25 22:28:39;;;;;;;3.67;3.35;;;;;;;;;;4813993;29;20081;-80
2023/12/25 22:31:06;;;;;;;4.03;3.10;;;;;;;;;;4796240;29;20115;-79
2023/12/25 22:33:35;;;;;;;4.18;3.15;;;;;;;;;;4806706;29;20184;-80
2023/12/25 22:36:02;;;;;;;4.03;2.97;;;;;;;;;;4814139;29;20066;-80
2023/12/25 22:38:29;;;;;;;4.38;3.70;;;;;;;;;;4810753;29;20062;-81
2023/12/25 22:40:58;;;;;;;3.30;3.00;;;;;;;;;;4823672;29;20059;-82
2023/12/25 22:43:25;;;;;;;3.45;3.15;;;;;;;;;;4811279;29;20201;-81
2023/12/25 22:45:51;;;;;;;4.78;3.10;;;;;;;;;;4807743;29;20047;-83
2023/12/25 22:48:19;;;;;;;4.65;3.65;;;;;;;;;;4806454;29;20062;-81
2023/12/25 22:50:45;;;;;;;2.92;2.72;;;;;;;;;;4815707;29;20046;-81
2023/12/25 22:53:13;;;;;;;3.75;3.33;;;;;;;;;;4826972;29;20074;-82
2023/12/25 22:55:40;;;;;;;3.22;2.80;;;;;;;;;;4829688;29;20046;-81
2023/12/25 22:58:06;;;;;;;4.18;3.78;;;;;;;;;;4832480;29;20038;-80
2023/12/25 23:00:33;;;;;;;4.03;3.60;;;;;;;;;;4805367;29;20458;-83
2023/12/25 23:03:00;;;;;;;3.65;3.20;;;;;;;;;;4802294;29;20057;-77
2023/12/25 23:05:26;;;;;;;3.88;3.55;;;;;;;;;;4815567;29;20057;-75
2023/12/25 23:07:53;;;;;;;7.82;4.40;;;;;;;;;;4813018;29;20593;-75
2023/12/25 23:10:20;;;;;;;3.38;3.08;;;;;;;;;;4816648;29;20050;-75
2023/12/25 23:12:46;;;;;;;3.25;2.95;;;;;;;;;;4819364;29;20047;-76
2023/12/25 23:15:13;;;;;;;3.30;3.00;;;;;;;;;;4810418;29;20065;-74
2023/12/25 23:17:40;;;;;;;3.78;3.38;;;;;;;;;;4814065;29;20139;-74
2023/12/25 23:20:06;;;;;;;3.63;3.08;;;;;;;;;;4810587;29;20055;-75
2023/12/25 23:22:33;;;;;;;3.30;3.00;;;;;;;;;;4815030;29;20062;-75
2023/12/25 23:24:59;;;;;;;3.60;3.30;;;;;;;;;;4817731;29;20115;-75
2023/12/25 23:27:26;;;;;;;3.83;3.42;;;;;;;;;;4810720;29;20141;-78
2023/12/25 23:29:52;;;;;;;3.13;2.85;;;;;;;;;;4798456;29;20055;-74
2023/12/25 23:32:19;;;;;;;3.63;2.70;;;;;;;;;;4795130;29;20122;-74
2023/12/25 23:34:45;;;;;;;2.50;2.30;;;;;;;;;;4814322;29;20462;-75
2023/12/25 23:37:12;;;;;;;2.65;1.95;;;;;;;;;;4812706;29;20782;-75
2023/12/25 23:39:38;;;;;;;2.50;2.30;;;;;;;;;;4799890;29;20058;-74
2023/12/25 23:42:05;;;;;;;2.30;2.10;;;;;;;;;;4818541;29;20058;-75
2023/12/25 23:44:31;;;;;;;3.67;2.47;;;;;;;;;;4809282;29;20058;-75
2023/12/25 23:46:58;;;;;;;2.97;2.58;;;;;;;;;;4818586;29;20098;-75
2023/12/25 23:49:24;;;;;;;2.60;2.40;;;;;;;;;;4797301;29;20122;-74
2023/12/25 23:51:50;;;;;;;2.70;2.50;;;;;;;;;;4805549;29;20145;-74
2023/12/25 23:54:17;;;;;;;2.55;2.35;;;;;;;;;;4836872;29;20154;-73
2023/12/25 23:56:43;;;;;;;3.85;3.40;;;;;;;;;;4809134;29;20058;-74
2023/12/25 23:59:10;;;;;;;3.50;3.20;;;;;;;;;;4797523;29;20058;-74
